Portada
METAR-TAF:

METAR-TAF

Aeropuertos :

El Aaiún, Marruecos

Aeropuerto Internacional Hassan I

latitud: 27-10N, longitud: 013-12-59W, altitud: 6 m

Observación

El informe se hizo hace 53 minutos, a las 22:00 UTC
Viento 17 kt del norte-noreste
Temperatura 23°C
Humedad 78%
Presión 1012 hPa
Visibilidad: 6000 m

METAR: GMML 202200Z 02017KT 6000 NSC 23/19 Q1012 NOSIG

Hora: 23:53 (22:53 UTC)

Pronóstico

El informe se hizo hace 5 horas y 53 minutos, a las 17:00 UTC
Pronóstico válido del 20 a las 18 UTC al 21 a las 24 UTC
Viento 22 kt del norte-noreste
Visibilidad: 6000 m
Probabilidad 30% :
Temporalmente
del 21 a las 15 UTC al 21 a las 18 UTC
Visibilidad: 2000 m
arena

TAF: GMML 201700Z 2018/2124 03022KT 6000 NSC PROB30 TEMPO 2115/2118 2000 SA

Observaciones y pronósticos meteorológicos de más de 4000 aeropuertos (mensajes METAR y TAF).

Los puntos amarillos y rojos representan las estaciones disponibles.

Ponga el ratón en el punto deseado para ver el nombre de la estación.

Haga clic para ver las observaciones y los pronósticos meteorológicos.

Para cambiar el mapa : haga clic en los botones verdes con una cruz de color negro para hacer un zoom, en el botón verde con un guión para alejar o en las flechas verdes para mapas adyacentes.


METAR-TAF: